createdAt,value
2022-08-27T00:00:32.366Z,20.83
2022-08-27T00:02:59.209Z,20.78
2022-08-27T00:05:25.802Z,20.74
2022-08-27T00:07:52.316Z,21.01
2022-08-27T00:10:21.386Z,20.94
2022-08-27T00:12:48.401Z,20.60
2022-08-27T00:15:17.842Z,20.48
2022-08-27T00:17:45.682Z,20.58
2022-08-27T00:20:13.731Z,20.57
2022-08-27T00:22:40.238Z,20.50
2022-08-27T00:25:07.256Z,20.18
2022-08-27T00:27:33.805Z,20.32
2022-08-27T00:30:00.379Z,20.51
2022-08-27T00:32:26.967Z,20.42
2022-08-27T00:34:53.440Z,20.22
2022-08-27T00:37:20.257Z,19.97
2022-08-27T00:39:46.850Z,19.92
2022-08-27T00:42:13.429Z,20.05
2022-08-27T00:44:39.987Z,20.02
2022-08-27T00:47:07.750Z,20.19
2022-08-27T00:49:43.698Z,20.15
2022-08-27T00:52:17.182Z,20.32
2022-08-27T00:54:44.034Z,20.39
2022-08-27T00:57:10.596Z,20.37
2022-08-27T00:59:37.240Z,20.22
2022-08-27T01:02:19.270Z,20.19
2022-08-27T01:04:48.703Z,20.27
2022-08-27T01:07:15.362Z,20.49
2022-08-27T01:09:42.974Z,20.15
2022-08-27T01:12:11.209Z,20.17
2022-08-27T01:14:38.655Z,20.02
2022-08-27T01:17:08.934Z,20.16
2022-08-27T01:19:45.221Z,20.22
2022-08-27T01:22:20.400Z,19.94
2022-08-27T01:24:50.619Z,19.88
2022-08-27T01:27:18.531Z,19.84
2022-08-27T01:29:45.412Z,19.85
2022-08-27T01:32:31.947Z,19.81
2022-08-27T01:34:59.153Z,19.63
2022-08-27T01:37:26.155Z,19.74
2022-08-27T01:39:55.095Z,19.54
2022-08-27T01:42:27.845Z,19.75
2022-08-27T01:44:55.884Z,19.75
2022-08-27T01:47:23.844Z,19.63
2022-08-27T01:49:57.798Z,19.57
2022-08-27T01:52:26.238Z,19.88
2022-08-27T01:54:52.829Z,19.85
2022-08-27T01:57:24.055Z,19.76
2022-08-27T01:59:52.583Z,19.66
2022-08-27T02:02:19.769Z,19.63
2022-08-27T02:04:46.305Z,19.72
2022-08-27T02:07:12.890Z,19.57
2022-08-27T02:09:39.478Z,19.57
2022-08-27T02:12:06.319Z,19.79
2022-08-27T02:14:32.862Z,19.85
2022-08-27T02:16:59.638Z,19.63
2022-08-27T02:19:27.291Z,19.74
2022-08-27T02:21:54.528Z,19.87
2022-08-27T02:24:21.240Z,20.06
2022-08-27T02:26:47.714Z,19.98
2022-08-27T02:29:14.397Z,19.85
2022-08-27T02:31:42.121Z,19.67
2022-08-27T02:34:09.737Z,19.63
2022-08-27T02:36:37.422Z,19.45
2022-08-27T02:39:05.583Z,19.35
2022-08-27T02:41:32.230Z,19.40
2022-08-27T02:43:58.898Z,19.55
2022-08-27T02:46:28.935Z,19.59
2022-08-27T02:48:55.941Z,19.40
2022-08-27T02:51:22.746Z,19.35
2022-08-27T02:53:50.320Z,19.31
2022-08-27T02:56:17.339Z,19.37
2022-08-27T02:58:48.349Z,19.29
2022-08-27T03:01:15.524Z,19.32
2022-08-27T03:03:42.201Z,19.31
2022-08-27T03:06:08.815Z,19.29
2022-08-27T03:08:38.005Z,19.37
2022-08-27T03:11:19.774Z,19.36
2022-08-27T03:13:46.330Z,19.48
2022-08-27T03:16:12.911Z,19.42
2022-08-27T03:18:39.922Z,19.23
2022-08-27T03:21:08.160Z,19.31
2022-08-27T03:23:35.227Z,19.32
2022-08-27T03:26:03.647Z,19.07
2022-08-27T03:28:32.940Z,19.08
2022-08-27T03:31:01.322Z,18.88
2022-08-27T03:33:32.850Z,19.13
2022-08-27T03:35:59.669Z,19.01
2022-08-27T03:38:26.524Z,19.39
2022-08-27T03:40:53.554Z,19.39
2022-08-27T03:43:21.017Z,19.42
2022-08-27T03:46:00.413Z,19.35
2022-08-27T03:48:29.055Z,19.18
2022-08-27T03:50:55.606Z,19.05
2022-08-27T03:53:22.153Z,18.94
2022-08-27T03:55:48.863Z,19.17
2022-08-27T03:58:16.027Z,19.18
2022-08-27T04:00:42.657Z,19.22
2022-08-27T04:03:12.307Z,19.23
2022-08-27T04:05:38.818Z,19.20
2022-08-27T04:08:06.754Z,19.28
2022-08-27T04:10:34.959Z,19.32
2022-08-27T04:13:01.941Z,19.37
2022-08-27T04:15:28.438Z,19.06
2022-08-27T04:17:54.949Z,18.90
2022-08-27T04:20:36.715Z,19.03
2022-08-27T04:23:03.675Z,19.12
2022-08-27T04:25:30.280Z,19.10
2022-08-27T04:27:57.069Z,19.16
2022-08-27T04:30:23.653Z,19.01
2022-08-27T04:32:50.645Z,19.12
2022-08-27T04:35:17.364Z,19.35
2022-08-27T04:37:43.890Z,19.26
2022-08-27T04:40:10.779Z,19.25
2022-08-27T04:42:37.622Z,19.25
2022-08-27T04:45:04.682Z,19.08
2022-08-27T04:47:31.206Z,19.04
2022-08-27T04:49:57.898Z,19.22
2022-08-27T04:52:24.762Z,19.42
2022-08-27T04:54:51.933Z,19.81
2022-08-27T04:57:18.833Z,19.69
2022-08-27T04:59:45.522Z,19.64
2022-08-27T05:02:12.324Z,19.72
2022-08-27T05:04:40.254Z,19.77
2022-08-27T05:07:07.905Z,19.84
2022-08-27T05:09:34.807Z,19.79
2022-08-27T05:12:01.754Z,20.02
2022-08-27T05:14:32.718Z,19.98
2022-08-27T05:16:59.598Z,19.97
2022-08-27T05:19:26.622Z,20.11
2022-08-27T05:21:53.909Z,20.36
2022-08-27T05:24:21.407Z,20.53
2022-08-27T05:26:48.326Z,20.65
2022-08-27T05:29:15.386Z,20.75
2022-08-27T05:31:42.596Z,20.70
2022-08-27T05:34:10.564Z,21.05
2022-08-27T05:36:47.734Z,21.03
2022-08-27T05:39:15.254Z,20.81
2022-08-27T05:41:41.755Z,21.06
2022-08-27T05:44:36.839Z,21.30
2022-08-27T05:46:55.914Z,21.37
2022-08-27T05:49:22.387Z,21.79
2022-08-27T05:51:48.858Z,22.01
2022-08-27T05:54:19.747Z,22.02
2022-08-27T05:56:47.392Z,22.23
2022-08-27T05:59:34.518Z,22.05
2022-08-27T06:02:02.151Z,22.21
2022-08-27T06:04:28.761Z,22.26
2022-08-27T06:06:55.313Z,22.26
2022-08-27T06:09:23.399Z,22.32
2022-08-27T06:11:50.005Z,22.23
2022-08-27T06:14:16.739Z,22.93
2022-08-27T06:16:43.276Z,22.97
2022-08-27T06:19:12.073Z,23.55
2022-08-27T06:21:39.967Z,23.76
2022-08-27T06:24:06.722Z,24.32
2022-08-27T06:26:33.261Z,24.85
2022-08-27T06:29:06.557Z,24.64
2022-08-27T06:31:35.081Z,24.78
2022-08-27T06:34:02.834Z,25.03
2022-08-27T06:36:30.181Z,25.21
2022-08-27T06:38:57.642Z,25.04
2022-08-27T06:41:26.664Z,25.20
2022-08-27T06:43:54.083Z,25.98
2022-08-27T06:46:22.180Z,26.31
2022-08-27T06:48:52.065Z,25.49
2022-08-27T06:51:20.123Z,25.68
2022-08-27T06:53:47.414Z,26.20
2022-08-27T06:56:14.910Z,26.15
2022-08-27T06:58:42.119Z,26.18
2022-08-27T07:01:13.350Z,26.39
2022-08-27T07:03:40.055Z,26.96
2022-08-27T07:06:07.532Z,26.98
2022-08-27T07:08:34.085Z,25.67
2022-08-27T07:11:00.706Z,26.16
2022-08-27T07:13:28.757Z,26.86
2022-08-27T07:15:56.131Z,26.73
2022-08-27T07:18:23.984Z,26.87
2022-08-27T07:20:54.778Z,26.62
2022-08-27T07:23:21.702Z,27.23
2022-08-27T07:25:48.618Z,28.14
2022-08-27T07:28:15.194Z,27.54
2022-08-27T07:30:41.789Z,27.97
2022-08-27T07:33:08.911Z,28.08
2022-08-27T07:35:35.486Z,28.82
2022-08-27T07:38:02.053Z,28.59
2022-08-27T07:40:28.689Z,28.41
2022-08-27T07:43:14.816Z,29.66
2022-08-27T07:45:45.954Z,30.72
2022-08-27T07:48:12.859Z,29.16
2022-08-27T07:50:39.561Z,30.29
2022-08-27T07:53:07.463Z,30.62
2022-08-27T07:55:36.086Z,30.22
2022-08-27T07:58:02.977Z,30.78
2022-08-27T08:00:29.553Z,30.59
2022-08-27T08:02:56.086Z,31.02
2022-08-27T08:05:24.493Z,31.28
2022-08-27T08:07:51.967Z,31.29
2022-08-27T08:10:19.827Z,31.35
2022-08-27T08:12:46.470Z,30.74
2022-08-27T08:15:13.022Z,30.25
2022-08-27T08:17:40.379Z,31.30
2022-08-27T08:20:21.758Z,31.06
2022-08-27T08:22:53.899Z,31.17
2022-08-27T08:25:20.462Z,31.50
2022-08-27T08:27:48.084Z,31.06
2022-08-27T08:30:15.174Z,31.50
2022-08-27T08:32:43.287Z,31.23
2022-08-27T08:35:10.015Z,30.49
2022-08-27T08:37:36.558Z,30.67
2022-08-27T08:40:03.651Z,30.76
2022-08-27T08:42:36.967Z,31.38
2022-08-27T08:45:04.990Z,31.68
2022-08-27T08:47:35.263Z,31.30
2022-08-27T08:50:06.023Z,31.28
2022-08-27T08:52:40.456Z,31.77
2022-08-27T08:55:13.406Z,31.26
2022-08-27T08:57:47.478Z,31.14
2022-08-27T09:00:14.215Z,33.10
2022-08-27T09:02:45.601Z,32.67
2022-08-27T09:05:12.483Z,31.96
2022-08-27T09:07:45.736Z,30.95
2022-08-27T09:10:26.051Z,31.57
2022-08-27T09:12:55.837Z,31.59
2022-08-27T09:15:23.422Z,31.46
2022-08-27T09:17:50.665Z,31.87
2022-08-27T09:20:18.918Z,31.73
2022-08-27T09:22:57.350Z,31.74
2022-08-27T09:25:25.844Z,31.67
2022-08-27T09:27:54.733Z,31.85
2022-08-27T09:30:30.000Z,31.99
2022-08-27T09:32:58.637Z,31.18
2022-08-27T09:35:26.946Z,32.11
2022-08-27T09:37:54.726Z,31.97
2022-08-27T09:40:39.937Z,31.62
2022-08-27T09:43:28.267Z,32.35
2022-08-27T09:45:56.798Z,32.54
2022-08-27T09:48:26.550Z,31.78
2022-08-27T09:50:57.238Z,32.08
2022-08-27T09:53:26.217Z,31.58
2022-08-27T09:56:04.255Z,32.52
2022-08-27T09:58:33.541Z,32.00
2022-08-27T10:01:02.019Z,32.17
2022-08-27T10:03:32.705Z,32.30
2022-08-27T10:06:00.497Z,34.64
2022-08-27T10:08:28.281Z,34.68
2022-08-27T10:10:59.669Z,34.84
2022-08-27T10:13:28.850Z,34.60
2022-08-27T10:16:01.091Z,33.47
2022-08-27T10:18:27.882Z,33.66
2022-08-27T10:20:54.525Z,33.34
2022-08-27T10:23:34.714Z,33.80
2022-08-27T10:26:08.017Z,31.85
2022-08-27T10:28:53.316Z,31.44
2022-08-27T10:31:38.975Z,32.81
2022-08-27T10:34:12.304Z,33.24
2022-08-27T10:36:57.909Z,31.72
2022-08-27T10:39:34.989Z,32.10
2022-08-27T10:42:10.810Z,32.48
2022-08-27T10:44:40.367Z,33.64
2022-08-27T10:47:29.920Z,33.16
2022-08-27T10:50:05.403Z,34.12
2022-08-27T10:52:37.131Z,33.28
2022-08-27T10:55:12.744Z,33.68
2022-08-27T10:58:01.018Z,33.40
2022-08-27T11:00:38.006Z,33.13
2022-08-27T11:03:07.103Z,33.10
2022-08-27T11:05:51.896Z,32.87
2022-08-27T11:08:24.753Z,31.90
2022-08-27T11:10:56.864Z,32.04
2022-08-27T11:13:40.591Z,32.20
2022-08-27T11:16:12.244Z,30.96
2022-08-27T11:18:47.215Z,30.13
2022-08-27T11:21:19.828Z,29.53
2022-08-27T11:23:50.046Z,30.99
2022-08-27T11:26:16.751Z,31.54
2022-08-27T11:28:49.858Z,32.54
2022-08-27T11:31:17.058Z,31.33
2022-08-27T11:33:58.187Z,31.29
2022-08-27T11:36:43.049Z,30.37
2022-08-27T11:39:27.697Z,30.55
2022-08-27T11:41:54.191Z,31.83
2022-08-27T11:44:22.601Z,31.02
2022-08-27T11:46:52.055Z,32.52
2022-08-27T11:49:24.107Z,33.70
2022-08-27T11:51:57.113Z,33.37
2022-08-27T11:54:27.054Z,34.39
2022-08-27T11:56:53.610Z,35.61
2022-08-27T11:59:26.478Z,36.11
2022-08-27T12:01:54.745Z,34.92
2022-08-27T12:04:30.703Z,34.81
2022-08-27T12:07:06.477Z,36.12
2022-08-27T12:09:48.023Z,35.81
2022-08-27T12:12:20.466Z,36.45
2022-08-27T12:14:54.812Z,36.47
2022-08-27T12:17:26.341Z,35.21
2022-08-27T12:19:56.883Z,35.51
2022-08-27T12:23:07.050Z,34.34
2022-08-27T12:25:33.838Z,33.16
2022-08-27T12:28:04.905Z,33.42
2022-08-27T12:30:31.462Z,34.29
2022-08-27T12:32:59.883Z,33.78
2022-08-27T12:35:31.486Z,32.87
2022-08-27T12:38:11.926Z,32.76
2022-08-27T12:40:41.738Z,32.30
2022-08-27T12:43:12.884Z,31.30
2022-08-27T12:45:45.487Z,30.59
2022-08-27T12:48:12.217Z,30.34
2022-08-27T12:50:39.034Z,29.94
2022-08-27T12:53:05.545Z,30.41
2022-08-27T12:55:39.920Z,30.74
2022-08-27T12:58:23.977Z,31.41
2022-08-27T13:01:05.955Z,31.39
2022-08-27T13:03:44.115Z,30.85
2022-08-27T13:06:27.340Z,30.74
2022-08-27T13:08:54.844Z,29.99
2022-08-27T13:11:23.359Z,29.44
2022-08-27T13:13:50.726Z,29.60
2022-08-27T13:16:18.510Z,29.44
2022-08-27T13:18:51.435Z,29.03
2022-08-27T13:21:20.971Z,29.17
2022-08-27T13:23:56.018Z,29.28
2022-08-27T13:26:24.459Z,29.38
2022-08-27T13:28:52.576Z,29.49
2022-08-27T13:31:21.118Z,29.65
2022-08-27T13:33:47.715Z,29.88
2022-08-27T13:36:14.380Z,29.73
2022-08-27T13:38:47.901Z,30.11
2022-08-27T13:41:25.400Z,30.39
2022-08-27T13:43:55.809Z,29.53
2022-08-27T13:46:27.739Z,29.30
2022-08-27T13:48:55.798Z,29.09
2022-08-27T13:51:28.194Z,28.96
2022-08-27T13:54:12.920Z,28.62
2022-08-27T13:56:49.083Z,28.95
2022-08-27T13:59:24.074Z,28.55
2022-08-27T14:01:55.957Z,27.84
2022-08-27T14:04:24.462Z,27.67
2022-08-27T14:06:51.421Z,27.29
2022-08-27T14:09:22.181Z,27.97
2022-08-27T14:11:49.071Z,27.40
2022-08-27T14:14:16.854Z,27.13
2022-08-27T14:16:43.446Z,26.67
2022-08-27T14:19:11.658Z,26.24
2022-08-27T14:21:40.301Z,26.96
2022-08-27T14:24:07.646Z,27.17
2022-08-27T14:26:34.202Z,27.16
2022-08-27T14:29:01.047Z,26.96
2022-08-27T14:31:28.234Z,27.04
2022-08-27T14:33:54.833Z,26.74
2022-08-27T14:36:22.623Z,26.12
2022-08-27T14:38:50.342Z,26.34
2022-08-27T14:41:18.907Z,26.29
2022-08-27T14:43:49.058Z,26.14
2022-08-27T14:46:41.592Z,25.46
2022-08-27T14:49:13.206Z,25.52
2022-08-27T14:51:42.662Z,25.68
2022-08-27T14:54:09.335Z,24.55
2022-08-27T14:56:35.840Z,24.98
2022-08-27T14:59:02.405Z,25.32
2022-08-27T15:01:29.411Z,25.45
2022-08-27T15:03:56.764Z,25.21
2022-08-27T15:06:23.866Z,25.73
2022-08-27T15:08:51.065Z,26.10
2022-08-27T15:11:25.307Z,25.66
2022-08-27T15:13:52.705Z,25.54
2022-08-27T15:16:29.732Z,25.43
2022-08-27T15:19:01.235Z,25.46
2022-08-27T15:21:28.837Z,24.79
2022-08-27T15:23:58.285Z,24.81
2022-08-27T15:26:24.897Z,24.69
2022-08-27T15:28:51.447Z,25.01
2022-08-27T15:31:18.839Z,24.93
2022-08-27T15:33:45.622Z,24.46
2022-08-27T15:36:12.916Z,24.20
2022-08-27T15:38:39.854Z,23.84
2022-08-27T15:41:06.694Z,23.87
2022-08-27T15:43:33.389Z,24.03
2022-08-27T15:45:59.920Z,23.95
2022-08-27T15:48:26.499Z,23.49
2022-08-27T15:50:53.130Z,23.17
2022-08-27T15:53:21.869Z,22.68
2022-08-27T15:55:48.567Z,22.23
2022-08-27T15:58:15.026Z,22.95
2022-08-27T16:00:42.058Z,22.96
2022-08-27T16:03:11.569Z,22.90
2022-08-27T16:05:38.946Z,22.75
2022-08-27T16:08:06.029Z,22.97
2022-08-27T16:10:32.904Z,22.60
2022-08-27T16:12:59.439Z,22.31
2022-08-27T16:15:25.937Z,22.13
2022-08-27T16:17:54.649Z,22.22
2022-08-27T16:20:21.402Z,21.89
2022-08-27T16:22:48.383Z,21.79
2022-08-27T16:25:18.514Z,21.58
2022-08-27T16:27:47.505Z,21.60
2022-08-27T16:30:14.356Z,21.60
2022-08-27T16:32:41.230Z,21.25
2022-08-27T16:35:08.862Z,21.04
2022-08-27T16:37:35.609Z,21.01
2022-08-27T16:40:02.238Z,21.64
2022-08-27T16:42:28.817Z,21.42
2022-08-27T16:44:55.353Z,21.33
2022-08-27T16:47:21.806Z,21.22
2022-08-27T16:50:07.322Z,22.09
2022-08-27T16:52:34.197Z,22.04
2022-08-27T16:55:00.767Z,21.29
2022-08-27T16:57:27.297Z,21.08
2022-08-27T16:59:55.021Z,20.94
2022-08-27T17:02:32.420Z,20.82
2022-08-27T17:05:07.331Z,20.57
2022-08-27T17:07:44.123Z,20.62
2022-08-27T17:10:15.462Z,20.14
2022-08-27T17:12:42.688Z,20.32
2022-08-27T17:15:09.686Z,20.33
2022-08-27T17:17:38.778Z,20.34
2022-08-27T17:20:06.422Z,20.37
2022-08-27T17:22:34.900Z,20.27
2022-08-27T17:25:01.490Z,20.20
2022-08-27T17:27:28.002Z,20.18
2022-08-27T17:29:54.645Z,20.18
2022-08-27T17:32:21.185Z,19.88
2022-08-27T17:34:47.771Z,20.07
2022-08-27T17:37:14.450Z,20.31
2022-08-27T17:39:42.105Z,20.47
2022-08-27T17:42:09.339Z,20.44
2022-08-27T17:44:37.001Z,20.30
2022-08-27T17:47:05.363Z,20.47
2022-08-27T17:49:32.417Z,21.15
2022-08-27T17:52:00.962Z,20.53
2022-08-27T17:54:27.459Z,20.39
2022-08-27T17:56:54.334Z,20.71
2022-08-27T17:59:20.873Z,21.07
2022-08-27T18:01:50.254Z,21.08
2022-08-27T18:04:19.964Z,20.73
2022-08-27T18:06:49.448Z,20.83
2022-08-27T18:09:19.194Z,20.70
2022-08-27T18:11:46.658Z,20.71
2022-08-27T18:14:13.545Z,20.34
2022-08-27T18:16:45.113Z,20.41
2022-08-27T18:19:11.643Z,20.35
2022-08-27T18:21:46.500Z,19.97
2022-08-27T18:24:14.070Z,20.34
2022-08-27T18:26:40.573Z,20.12
2022-08-27T18:29:07.240Z,19.91
2022-08-27T18:31:33.798Z,19.99
2022-08-27T18:34:00.659Z,20.16
2022-08-27T18:36:27.486Z,20.21
2022-08-27T18:38:54.066Z,20.21
2022-08-27T18:41:20.698Z,20.36
2022-08-27T18:43:47.500Z,20.46
2022-08-27T18:46:14.199Z,20.45
2022-08-27T18:48:40.869Z,20.53
2022-08-27T18:51:09.129Z,20.45
2022-08-27T18:53:36.327Z,20.50
2022-08-27T18:56:04.286Z,20.38
2022-08-27T18:58:31.041Z,20.29
2022-08-27T19:00:59.374Z,20.18
2022-08-27T19:03:33.446Z,20.02
2022-08-27T19:06:00.757Z,19.68
2022-08-27T19:08:28.121Z,19.92
2022-08-27T19:10:55.616Z,20.05
2022-08-27T19:13:22.390Z,20.23
2022-08-27T19:15:54.582Z,20.47
2022-08-27T19:18:22.468Z,20.16
2022-08-27T19:20:48.930Z,20.35
2022-08-27T19:23:15.578Z,20.54
2022-08-27T19:25:48.914Z,20.28
2022-08-27T19:28:17.479Z,20.32
2022-08-27T19:30:44.361Z,20.37
2022-08-27T19:33:11.106Z,20.13
2022-08-27T19:35:39.077Z,20.05
2022-08-27T19:38:05.690Z,20.02
2022-08-27T19:40:35.358Z,20.09
2022-08-27T19:43:01.991Z,20.06
2022-08-27T19:45:28.710Z,20.11
2022-08-27T19:47:55.306Z,20.03
2022-08-27T19:50:22.410Z,20.07
2022-08-27T19:52:49.605Z,19.86
2022-08-27T19:55:16.242Z,19.69
2022-08-27T19:57:43.657Z,19.68
2022-08-27T20:00:11.965Z,19.62
2022-08-27T20:02:38.558Z,19.52
2022-08-27T20:05:21.584Z,19.31
2022-08-27T20:07:49.832Z,19.33
2022-08-27T20:10:17.370Z,19.36
2022-08-27T20:12:44.668Z,19.18
2022-08-27T20:15:11.416Z,19.16
2022-08-27T20:17:39.131Z,19.19
2022-08-27T20:20:06.483Z,19.20
2022-08-27T20:22:32.986Z,19.22
2022-08-27T20:24:59.537Z,19.26
2022-08-27T20:27:26.034Z,19.26
2022-08-27T20:29:54.832Z,19.33
2022-08-27T20:32:22.783Z,19.38
2022-08-27T20:34:50.661Z,19.38
2022-08-27T20:37:17.531Z,19.38
2022-08-27T20:39:44.384Z,19.42
2022-08-27T20:42:11.185Z,19.69
2022-08-27T20:44:38.580Z,19.56
2022-08-27T20:47:05.419Z,19.61
2022-08-27T20:49:32.421Z,19.60
2022-08-27T20:52:03.042Z,19.91
2022-08-27T20:54:31.583Z,19.80
2022-08-27T20:56:58.327Z,19.76
2022-08-27T20:59:43.802Z,19.74
2022-08-27T21:02:11.668Z,19.75
2022-08-27T21:04:43.358Z,19.76
2022-08-27T21:07:09.853Z,19.93
2022-08-27T21:09:36.417Z,19.97
2022-08-27T21:12:22.890Z,20.09
2022-08-27T21:14:50.093Z,19.81
2022-08-27T21:17:21.483Z,19.94
2022-08-27T21:19:47.951Z,19.49
2022-08-27T21:22:14.458Z,19.65
2022-08-27T21:24:42.055Z,19.80
2022-08-27T21:27:08.557Z,19.57
2022-08-27T21:29:36.780Z,19.43
2022-08-27T21:32:03.456Z,19.39
2022-08-27T21:34:31.030Z,19.43
2022-08-27T21:36:57.971Z,19.68
2022-08-27T21:39:24.490Z,19.68
2022-08-27T21:41:51.014Z,19.57
2022-08-27T21:44:17.497Z,19.62
2022-08-27T21:46:44.016Z,19.46
2022-08-27T21:49:10.598Z,19.61
2022-08-27T21:51:37.142Z,19.54
2022-08-27T21:54:03.700Z,19.51
2022-08-27T21:56:31.783Z,19.36
2022-08-27T21:58:58.282Z,19.42
2022-08-27T22:01:24.868Z,19.76
2022-08-27T22:03:51.625Z,19.63
2022-08-27T22:06:18.979Z,19.40
2022-08-27T22:08:45.864Z,19.08
2022-08-27T22:11:12.926Z,19.10
2022-08-27T22:13:40.185Z,19.18
2022-08-27T22:16:07.363Z,19.41
2022-08-27T22:18:34.259Z,19.60
2022-08-27T22:21:00.810Z,19.65
2022-08-27T22:23:27.727Z,19.79
2022-08-27T22:25:54.324Z,19.77
2022-08-27T22:28:20.910Z,19.66
2022-08-27T22:30:47.464Z,19.60
2022-08-27T22:33:14.723Z,19.96
2022-08-27T22:35:41.242Z,19.81
2022-08-27T22:38:07.951Z,19.64
2022-08-27T22:40:35.799Z,19.76
2022-08-27T22:43:03.880Z,19.98
2022-08-27T22:45:30.836Z,20.41
2022-08-27T22:47:57.571Z,20.42
2022-08-27T22:50:24.313Z,20.12
2022-08-27T22:52:51.085Z,20.37
2022-08-27T22:55:19.443Z,20.73
2022-08-27T22:57:47.210Z,20.46
2022-08-27T23:00:24.573Z,19.98
2022-08-27T23:02:51.253Z,19.88
2022-08-27T23:05:17.944Z,20.92
2022-08-27T23:07:44.855Z,20.15
2022-08-27T23:10:12.511Z,19.65
2022-08-27T23:12:39.080Z,19.36
2022-08-27T23:15:07.703Z,19.31
2022-08-27T23:17:34.305Z,19.32
2022-08-27T23:20:00.811Z,19.28
2022-08-27T23:22:27.361Z,19.28
2022-08-27T23:25:12.701Z,19.39
2022-08-27T23:27:39.290Z,19.21
2022-08-27T23:30:06.221Z,18.86
2022-08-27T23:32:32.758Z,18.97
2022-08-27T23:34:59.262Z,18.88
2022-08-27T23:37:25.814Z,18.91
2022-08-27T23:39:52.367Z,19.08
2022-08-27T23:42:19.134Z,18.96
2022-08-27T23:44:46.351Z,19.04
2022-08-27T23:47:12.978Z,19.19
2022-08-27T23:49:39.702Z,19.06
2022-08-27T23:52:06.602Z,18.81
2022-08-27T23:54:33.918Z,18.62
2022-08-27T23:57:00.429Z,18.80
2022-08-27T23:59:30.401Z,18.85
